sensor_id;sensor_type;location;lat;lon;timestamp;P1;durP1;ratioP1;P2;durP2;ratioP2
60502;SDS011;51448;51.660;5.824;2023-07-28T00:02:23;7.32;;;5.80;;
60502;SDS011;51448;51.660;5.824;2023-07-28T00:04:51;7.80;;;5.90;;
60502;SDS011;51448;51.660;5.824;2023-07-28T00:07:19;8.73;;;6.10;;
60502;SDS011;51448;51.660;5.824;2023-07-28T00:09:46;7.20;;;5.45;;
60502;SDS011;51448;51.660;5.824;2023-07-28T00:12:14;7.80;;;5.60;;
60502;SDS011;51448;51.660;5.824;2023-07-28T00:14:42;9.45;;;5.40;;
60502;SDS011;51448;51.660;5.824;2023-07-28T00:17:09;7.28;;;5.32;;
60502;SDS011;51448;51.660;5.824;2023-07-28T00:19:37;7.15;;;5.40;;
60502;SDS011;51448;51.660;5.824;2023-07-28T00:22:04;7.10;;;5.10;;
60502;SDS011;51448;51.660;5.824;2023-07-28T00:24:32;7.30;;;5.18;;
60502;SDS011;51448;51.660;5.824;2023-07-28T00:27:00;7.18;;;5.03;;
60502;SDS011;51448;51.660;5.824;2023-07-28T00:29:27;7.53;;;5.13;;
60502;SDS011;51448;51.660;5.824;2023-07-28T00:31:55;7.45;;;5.35;;
60502;SDS011;51448;51.660;5.824;2023-07-28T00:34:22;6.75;;;5.15;;
60502;SDS011;51448;51.660;5.824;2023-07-28T00:36:50;8.70;;;5.60;;
60502;SDS011;51448;51.660;5.824;2023-07-28T00:39:20;8.57;;;5.55;;
60502;SDS011;51448;51.660;5.824;2023-07-28T00:41:47;7.15;;;5.45;;
60502;SDS011;51448;51.660;5.824;2023-07-28T00:44:15;9.82;;;5.38;;
60502;SDS011;51448;51.660;5.824;2023-07-28T00:46:44;7.45;;;5.88;;
60502;SDS011;51448;51.660;5.824;2023-07-28T00:49:12;7.13;;;5.63;;
60502;SDS011;51448;51.660;5.824;2023-07-28T00:51:40;7.90;;;5.43;;
60502;SDS011;51448;51.660;5.824;2023-07-28T00:54:08;7.75;;;6.10;;
60502;SDS011;51448;51.660;5.824;2023-07-28T00:56:36;6.93;;;5.40;;
60502;SDS011;51448;51.660;5.824;2023-07-28T00:59:04;8.68;;;5.53;;
60502;SDS011;51448;51.660;5.824;2023-07-28T01:01:32;8.30;;;5.97;;
60502;SDS011;51448;51.660;5.824;2023-07-28T01:04:00;7.60;;;5.50;;
60502;SDS011;51448;51.660;5.824;2023-07-28T01:10:01;7.63;;;5.18;;
60502;SDS011;51448;51.660;5.824;2023-07-28T01:12:40;7.75;;;5.53;;
60502;SDS011;51448;51.660;5.824;2023-07-28T01:15:07;7.90;;;6.20;;
60502;SDS011;51448;51.660;5.824;2023-07-28T01:17:35;7.25;;;5.70;;
60502;SDS011;51448;51.660;5.824;2023-07-28T01:20:03;7.63;;;5.57;;
60502;SDS011;51448;51.660;5.824;2023-07-28T01:28:11;8.70;;;6.57;;
60502;SDS011;51448;51.660;5.824;2023-07-28T01:30:40;9.60;;;7.35;;
60502;SDS011;51448;51.660;5.824;2023-07-28T01:33:08;8.05;;;6.55;;
60502;SDS011;51448;51.660;5.824;2023-07-28T01:35:36;10.40;;;7.20;;
60502;SDS011;51448;51.660;5.824;2023-07-28T01:38:05;8.43;;;6.40;;
60502;SDS011;51448;51.660;5.824;2023-07-28T01:40:33;9.55;;;7.63;;
60502;SDS011;51448;51.660;5.824;2023-07-28T01:43:00;9.48;;;7.10;;
60502;SDS011;51448;51.660;5.824;2023-07-28T01:45:28;9.10;;;7.68;;
60502;SDS011;51448;51.660;5.824;2023-07-28T01:47:56;9.15;;;6.97;;
60502;SDS011;51448;51.660;5.824;2023-07-28T01:50:23;8.77;;;7.22;;
60502;SDS011;51448;51.660;5.824;2023-07-28T01:52:51;9.82;;;7.82;;
60502;SDS011;51448;51.660;5.824;2023-07-28T01:55:19;9.80;;;7.13;;
60502;SDS011;51448;51.660;5.824;2023-07-28T01:57:50;8.73;;;7.07;;
60502;SDS011;51448;51.660;5.824;2023-07-28T02:00:25;9.30;;;7.65;;
60502;SDS011;51448;51.660;5.824;2023-07-28T02:02:53;9.60;;;7.75;;
60502;SDS011;51448;51.660;5.824;2023-07-28T02:05:22;9.45;;;7.35;;
60502;SDS011;51448;51.660;5.824;2023-07-28T02:07:49;11.20;;;7.88;;
60502;SDS011;51448;51.660;5.824;2023-07-28T02:10:17;10.52;;;7.65;;
60502;SDS011;51448;51.660;5.824;2023-07-28T02:12:45;9.68;;;8.13;;
60502;SDS011;51448;51.660;5.824;2023-07-28T02:15:13;9.65;;;8.10;;
60502;SDS011;51448;51.660;5.824;2023-07-28T02:17:41;11.02;;;8.32;;
60502;SDS011;51448;51.660;5.824;2023-07-28T02:20:08;11.82;;;8.63;;
60502;SDS011;51448;51.660;5.824;2023-07-28T02:22:39;10.05;;;7.93;;
60502;SDS011;51448;51.660;5.824;2023-07-28T02:25:07;10.70;;;7.40;;
60502;SDS011;51448;51.660;5.824;2023-07-28T02:27:37;10.45;;;8.13;;
60502;SDS011;51448;51.660;5.824;2023-07-28T02:30:05;10.10;;;7.97;;
60502;SDS011;51448;51.660;5.824;2023-07-28T02:32:35;11.52;;;7.85;;
60502;SDS011;51448;51.660;5.824;2023-07-28T02:35:04;10.27;;;8.43;;
60502;SDS011;51448;51.660;5.824;2023-07-28T02:37:32;12.10;;;8.57;;
60502;SDS011;51448;51.660;5.824;2023-07-28T02:39:59;9.80;;;7.88;;
60502;SDS011;51448;51.660;5.824;2023-07-28T02:42:27;10.18;;;8.02;;
60502;SDS011;51448;51.660;5.824;2023-07-28T02:44:55;11.52;;;8.60;;
60502;SDS011;51448;51.660;5.824;2023-07-28T02:47:23;11.60;;;8.73;;
60502;SDS011;51448;51.660;5.824;2023-07-28T02:49:51;9.82;;;8.07;;
60502;SDS011;51448;51.660;5.824;2023-07-28T02:52:20;10.68;;;8.60;;
60502;SDS011;51448;51.660;5.824;2023-07-28T02:54:47;12.38;;;7.85;;
60502;SDS011;51448;51.660;5.824;2023-07-28T02:57:15;11.25;;;8.15;;
60502;SDS011;51448;51.660;5.824;2023-07-28T02:59:45;11.63;;;8.80;;
60502;SDS011;51448;51.660;5.824;2023-07-28T03:02:12;11.07;;;8.55;;
60502;SDS011;51448;51.660;5.824;2023-07-28T03:04:41;10.70;;;8.40;;
60502;SDS011;51448;51.660;5.824;2023-07-28T03:07:29;10.93;;;8.95;;
60502;SDS011;51448;51.660;5.824;2023-07-28T03:10:02;11.60;;;9.23;;
60502;SDS011;51448;51.660;5.824;2023-07-28T03:12:33;11.50;;;8.75;;
60502;SDS011;51448;51.660;5.824;2023-07-28T03:15:01;12.88;;;8.63;;
60502;SDS011;51448;51.660;5.824;2023-07-28T03:17:28;12.20;;;9.38;;
60502;SDS011;51448;51.660;5.824;2023-07-28T03:19:56;11.15;;;9.07;;
60502;SDS011;51448;51.660;5.824;2023-07-28T03:22:23;11.63;;;9.20;;
60502;SDS011;51448;51.660;5.824;2023-07-28T03:24:51;12.05;;;8.90;;
60502;SDS011;51448;51.660;5.824;2023-07-28T03:27:19;10.73;;;8.60;;
60502;SDS011;51448;51.660;5.824;2023-07-28T03:29:46;14.57;;;9.35;;
60502;SDS011;51448;51.660;5.824;2023-07-28T03:32:16;11.88;;;8.70;;
60502;SDS011;51448;51.660;5.824;2023-07-28T03:34:44;13.45;;;9.63;;
60502;SDS011;51448;51.660;5.824;2023-07-28T03:37:14;12.95;;;9.18;;
60502;SDS011;51448;51.660;5.824;2023-07-28T03:39:41;14.32;;;9.57;;
60502;SDS011;51448;51.660;5.824;2023-07-28T03:42:09;13.13;;;9.60;;
60502;SDS011;51448;51.660;5.824;2023-07-28T03:44:37;14.38;;;9.88;;
60502;SDS011;51448;51.660;5.824;2023-07-28T03:47:05;15.05;;;9.98;;
60502;SDS011;51448;51.660;5.824;2023-07-28T03:49:33;15.35;;;10.48;;
60502;SDS011;51448;51.660;5.824;2023-07-28T03:52:00;14.50;;;9.80;;
60502;SDS011;51448;51.660;5.824;2023-07-28T03:54:28;14.68;;;11.07;;
60502;SDS011;51448;51.660;5.824;2023-07-28T03:56:55;14.73;;;10.45;;
60502;SDS011;51448;51.660;5.824;2023-07-28T03:59:23;15.05;;;10.75;;
60502;SDS011;51448;51.660;5.824;2023-07-28T04:01:51;15.77;;;11.10;;
60502;SDS011;51448;51.660;5.824;2023-07-28T04:04:19;15.88;;;11.32;;
60502;SDS011;51448;51.660;5.824;2023-07-28T04:06:47;16.58;;;11.48;;
60502;SDS011;51448;51.660;5.824;2023-07-28T04:09:22;17.50;;;11.35;;
60502;SDS011;51448;51.660;5.824;2023-07-28T04:11:50;19.38;;;11.52;;
60502;SDS011;51448;51.660;5.824;2023-07-28T04:14:17;18.58;;;11.98;;
60502;SDS011;51448;51.660;5.824;2023-07-28T04:16:45;18.55;;;12.63;;
60502;SDS011;51448;51.660;5.824;2023-07-28T04:19:13;16.50;;;12.27;;
60502;SDS011;51448;51.660;5.824;2023-07-28T04:21:40;17.58;;;12.45;;
60502;SDS011;51448;51.660;5.824;2023-07-28T04:24:09;18.35;;;12.15;;
60502;SDS011;51448;51.660;5.824;2023-07-28T04:26:43;18.13;;;12.88;;
60502;SDS011;51448;51.660;5.824;2023-07-28T04:29:11;16.77;;;12.05;;
60502;SDS011;51448;51.660;5.824;2023-07-28T04:31:39;20.05;;;13.82;;
60502;SDS011;51448;51.660;5.824;2023-07-28T04:34:11;16.88;;;12.10;;
60502;SDS011;51448;51.660;5.824;2023-07-28T04:37:04;20.05;;;13.43;;
60502;SDS011;51448;51.660;5.824;2023-07-28T04:39:44;19.40;;;13.52;;
60502;SDS011;51448;51.660;5.824;2023-07-28T04:42:14;20.90;;;14.55;;
60502;SDS011;51448;51.660;5.824;2023-07-28T04:44:45;20.00;;;14.00;;
60502;SDS011;51448;51.660;5.824;2023-07-28T04:47:15;21.42;;;13.95;;
60502;SDS011;51448;51.660;5.824;2023-07-28T04:49:42;23.60;;;13.85;;
60502;SDS011;51448;51.660;5.824;2023-07-28T04:52:10;25.55;;;14.80;;
60502;SDS011;51448;51.660;5.824;2023-07-28T04:54:41;18.60;;;13.25;;
60502;SDS011;51448;51.660;5.824;2023-07-28T04:57:09;21.40;;;13.80;;
60502;SDS011;51448;51.660;5.824;2023-07-28T04:59:39;19.65;;;14.43;;
60502;SDS011;51448;51.660;5.824;2023-07-28T05:02:07;21.48;;;15.00;;
60502;SDS011;51448;51.660;5.824;2023-07-28T05:04:35;21.55;;;15.43;;
60502;SDS011;51448;51.660;5.824;2023-07-28T05:07:04;20.73;;;14.90;;
60502;SDS011;51448;51.660;5.824;2023-07-28T05:09:32;26.20;;;15.05;;
60502;SDS011;51448;51.660;5.824;2023-07-28T05:12:00;21.08;;;14.57;;
60502;SDS011;51448;51.660;5.824;2023-07-28T05:14:29;21.75;;;14.75;;
60502;SDS011;51448;51.660;5.824;2023-07-28T05:16:56;23.20;;;14.60;;
60502;SDS011;51448;51.660;5.824;2023-07-28T05:19:32;22.30;;;14.30;;
60502;SDS011;51448;51.660;5.824;2023-07-28T05:22:18;21.23;;;14.23;;
60502;SDS011;51448;51.660;5.824;2023-07-28T05:24:53;19.50;;;13.40;;
60502;SDS011;51448;51.660;5.824;2023-07-28T05:27:24;21.80;;;14.07;;
60502;SDS011;51448;51.660;5.824;2023-07-28T05:29:52;19.10;;;14.23;;
60502;SDS011;51448;51.660;5.824;2023-07-28T05:32:20;23.48;;;15.07;;
60502;SDS011;51448;51.660;5.824;2023-07-28T05:35:04;22.27;;;14.73;;
60502;SDS011;51448;51.660;5.824;2023-07-28T05:37:32;20.58;;;14.38;;
60502;SDS011;51448;51.660;5.824;2023-07-28T05:40:00;21.38;;;15.00;;
60502;SDS011;51448;51.660;5.824;2023-07-28T05:42:27;22.13;;;15.25;;
60502;SDS011;51448;51.660;5.824;2023-07-28T05:44:55;20.17;;;15.05;;
60502;SDS011;51448;51.660;5.824;2023-07-28T05:47:23;20.80;;;14.05;;
60502;SDS011;51448;51.660;5.824;2023-07-28T05:49:51;20.60;;;14.52;;
60502;SDS011;51448;51.660;5.824;2023-07-28T05:52:23;18.38;;;13.85;;
60502;SDS011;51448;51.660;5.824;2023-07-28T05:54:50;19.38;;;14.13;;
60502;SDS011;51448;51.660;5.824;2023-07-28T05:57:18;19.83;;;13.73;;
60502;SDS011;51448;51.660;5.824;2023-07-28T05:59:46;17.33;;;13.18;;
60502;SDS011;51448;51.660;5.824;2023-07-28T06:02:14;18.23;;;14.27;;
60502;SDS011;51448;51.660;5.824;2023-07-28T06:04:47;19.38;;;14.43;;
60502;SDS011;51448;51.660;5.824;2023-07-28T06:07:14;19.25;;;13.90;;
60502;SDS011;51448;51.660;5.824;2023-07-28T06:09:42;18.35;;;14.32;;
60502;SDS011;51448;51.660;5.824;2023-07-28T06:12:10;21.05;;;14.73;;
60502;SDS011;51448;51.660;5.824;2023-07-28T06:14:38;18.65;;;13.82;;
60502;SDS011;51448;51.660;5.824;2023-07-28T06:17:07;20.38;;;14.57;;
60502;SDS011;51448;51.660;5.824;2023-07-28T06:19:36;19.27;;;13.63;;
60502;SDS011;51448;51.660;5.824;2023-07-28T06:22:05;18.77;;;13.80;;
60502;SDS011;51448;51.660;5.824;2023-07-28T06:24:39;19.98;;;14.10;;
60502;SDS011;51448;51.660;5.824;2023-07-28T06:27:07;19.73;;;13.00;;
60502;SDS011;51448;51.660;5.824;2023-07-28T06:29:38;19.75;;;14.48;;
60502;SDS011;51448;51.660;5.824;2023-07-28T06:32:05;19.65;;;13.68;;
60502;SDS011;51448;51.660;5.824;2023-07-28T06:34:34;22.08;;;13.68;;
60502;SDS011;51448;51.660;5.824;2023-07-28T06:37:02;18.15;;;13.70;;
60502;SDS011;51448;51.660;5.824;2023-07-28T06:39:30;22.85;;;13.43;;
60502;SDS011;51448;51.660;5.824;2023-07-28T06:41:58;21.40;;;14.57;;
60502;SDS011;51448;51.660;5.824;2023-07-28T06:44:27;22.23;;;14.57;;
60502;SDS011;51448;51.660;5.824;2023-07-28T06:46:54;21.15;;;15.90;;
60502;SDS011;51448;51.660;5.824;2023-07-28T06:49:22;21.13;;;15.38;;
60502;SDS011;51448;51.660;5.824;2023-07-28T06:51:50;22.20;;;17.23;;
60502;SDS011;51448;51.660;5.824;2023-07-28T06:54:19;21.55;;;17.23;;
60502;SDS011;51448;51.660;5.824;2023-07-28T06:56:47;26.08;;;18.35;;
60502;SDS011;51448;51.660;5.824;2023-07-28T06:59:14;25.08;;;18.65;;
60502;SDS011;51448;51.660;5.824;2023-07-28T07:01:48;27.77;;;20.38;;
60502;SDS011;51448;51.660;5.824;2023-07-28T07:04:15;29.23;;;20.50;;
60502;SDS011;51448;51.660;5.824;2023-07-28T07:06:43;27.92;;;22.48;;
60502;SDS011;51448;51.660;5.824;2023-07-28T07:09:11;29.20;;;22.30;;
60502;SDS011;51448;51.660;5.824;2023-07-28T07:11:41;29.53;;;22.07;;
60502;SDS011;51448;51.660;5.824;2023-07-28T07:14:09;34.92;;;24.63;;
60502;SDS011;51448;51.660;5.824;2023-07-28T07:16:36;32.58;;;25.13;;
60502;SDS011;51448;51.660;5.824;2023-07-28T07:19:04;35.75;;;25.85;;
60502;SDS011;51448;51.660;5.824;2023-07-28T07:21:32;37.38;;;27.90;;
60502;SDS011;51448;51.660;5.824;2023-07-28T07:24:00;36.45;;;25.83;;
60502;SDS011;51448;51.660;5.824;2023-07-28T07:26:30;38.53;;;27.55;;
60502;SDS011;51448;51.660;5.824;2023-07-28T07:28:58;35.85;;;26.83;;
60502;SDS011;51448;51.660;5.824;2023-07-28T07:31:26;36.13;;;26.90;;
60502;SDS011;51448;51.660;5.824;2023-07-28T07:33:54;42.22;;;26.85;;
60502;SDS011;51448;51.660;5.824;2023-07-28T07:36:21;37.15;;;25.95;;
60502;SDS011;51448;51.660;5.824;2023-07-28T07:38:49;33.78;;;25.40;;
60502;SDS011;51448;51.660;5.824;2023-07-28T07:41:17;34.13;;;22.75;;
60502;SDS011;51448;51.660;5.824;2023-07-28T07:43:48;32.13;;;23.13;;
60502;SDS011;51448;51.660;5.824;2023-07-28T07:46:17;32.17;;;22.25;;
60502;SDS011;51448;51.660;5.824;2023-07-28T07:48:48;28.25;;;20.25;;
60502;SDS011;51448;51.660;5.824;2023-07-28T07:51:17;27.70;;;21.30;;
60502;SDS011;51448;51.660;5.824;2023-07-28T07:53:44;30.77;;;21.52;;
60502;SDS011;51448;51.660;5.824;2023-07-28T07:56:12;27.05;;;19.77;;
60502;SDS011;51448;51.660;5.824;2023-07-28T07:58:40;27.95;;;19.55;;
60502;SDS011;51448;51.660;5.824;2023-07-28T08:01:09;26.67;;;19.15;;
60502;SDS011;51448;51.660;5.824;2023-07-28T08:03:38;26.70;;;19.27;;
60502;SDS011;51448;51.660;5.824;2023-07-28T08:06:06;25.40;;;19.55;;
60502;SDS011;51448;51.660;5.824;2023-07-28T08:08:36;25.33;;;19.05;;
60502;SDS011;51448;51.660;5.824;2023-07-28T08:11:03;25.80;;;19.15;;
60502;SDS011;51448;51.660;5.824;2023-07-28T08:13:31;24.63;;;16.85;;
60502;SDS011;51448;51.660;5.824;2023-07-28T08:15:59;23.23;;;17.15;;
60502;SDS011;51448;51.660;5.824;2023-07-28T08:18:26;21.60;;;16.38;;
60502;SDS011;51448;51.660;5.824;2023-07-28T08:20:54;21.27;;;15.45;;
60502;SDS011;51448;51.660;5.824;2023-07-28T08:23:22;23.88;;;16.77;;
60502;SDS011;51448;51.660;5.824;2023-07-28T08:25:49;19.55;;;14.35;;
60502;SDS011;51448;51.660;5.824;2023-07-28T08:28:17;20.80;;;16.33;;
60502;SDS011;51448;51.660;5.824;2023-07-28T08:30:44;23.67;;;14.85;;
60502;SDS011;51448;51.660;5.824;2023-07-28T08:33:12;21.58;;;14.70;;
60502;SDS011;51448;51.660;5.824;2023-07-28T08:35:39;19.20;;;14.77;;
60502;SDS011;51448;51.660;5.824;2023-07-28T08:38:07;19.30;;;14.38;;
60502;SDS011;51448;51.660;5.824;2023-07-28T08:40:34;20.30;;;14.15;;
60502;SDS011;51448;51.660;5.824;2023-07-28T08:43:03;18.70;;;13.85;;
60502;SDS011;51448;51.660;5.824;2023-07-28T08:45:32;18.90;;;14.45;;
60502;SDS011;51448;51.660;5.824;2023-07-28T08:47:59;19.10;;;14.35;;
60502;SDS011;51448;51.660;5.824;2023-07-28T08:50:27;17.95;;;14.25;;
60502;SDS011;51448;51.660;5.824;2023-07-28T08:52:56;17.42;;;13.40;;
60502;SDS011;51448;51.660;5.824;2023-07-28T08:55:24;18.27;;;12.95;;
60502;SDS011;51448;51.660;5.824;2023-07-28T08:57:51;16.95;;;12.82;;
60502;SDS011;51448;51.660;5.824;2023-07-28T09:00:19;15.57;;;11.95;;
60502;SDS011;51448;51.660;5.824;2023-07-28T09:02:48;18.80;;;13.07;;
60502;SDS011;51448;51.660;5.824;2023-07-28T09:05:18;30.23;;;14.85;;
60502;SDS011;51448;51.660;5.824;2023-07-28T09:07:47;22.10;;;13.48;;
60502;SDS011;51448;51.660;5.824;2023-07-28T09:10:15;18.02;;;13.68;;
60502;SDS011;51448;51.660;5.824;2023-07-28T09:12:47;19.30;;;12.70;;
60502;SDS011;51448;51.660;5.824;2023-07-28T09:15:18;14.75;;;12.18;;
60502;SDS011;51448;51.660;5.824;2023-07-28T09:17:46;15.93;;;12.57;;
60502;SDS011;51448;51.660;5.824;2023-07-28T09:20:14;18.40;;;13.60;;
60502;SDS011;51448;51.660;5.824;2023-07-28T09:22:44;17.25;;;12.98;;
60502;SDS011;51448;51.660;5.824;2023-07-28T09:25:12;17.00;;;12.70;;
60502;SDS011;51448;51.660;5.824;2023-07-28T09:27:49;15.90;;;12.48;;
60502;SDS011;51448;51.660;5.824;2023-07-28T09:30:19;16.40;;;12.35;;
60502;SDS011;51448;51.660;5.824;2023-07-28T09:32:49;14.93;;;12.52;;
60502;SDS011;51448;51.660;5.824;2023-07-28T09:35:21;15.82;;;12.57;;
60502;SDS011;51448;51.660;5.824;2023-07-28T09:37:50;16.23;;;13.23;;
60502;SDS011;51448;51.660;5.824;2023-07-28T09:40:21;16.60;;;13.55;;
60502;SDS011;51448;51.660;5.824;2023-07-28T09:42:49;16.63;;;13.30;;
60502;SDS011;51448;51.660;5.824;2023-07-28T09:45:21;16.90;;;13.65;;
60502;SDS011;51448;51.660;5.824;2023-07-28T09:48:05;16.60;;;13.93;;
60502;SDS011;51448;51.660;5.824;2023-07-28T09:50:35;17.43;;;14.00;;
60502;SDS011;51448;51.660;5.824;2023-07-28T09:53:07;16.67;;;13.77;;
60502;SDS011;51448;51.660;5.824;2023-07-28T09:55:38;19.23;;;14.95;;
60502;SDS011;51448;51.660;5.824;2023-07-28T09:58:10;15.88;;;13.90;;
60502;SDS011;51448;51.660;5.824;2023-07-28T10:00:43;15.80;;;13.40;;
60502;SDS011;51448;51.660;5.824;2023-07-28T10:03:11;16.73;;;13.75;;
60502;SDS011;51448;51.660;5.824;2023-07-28T10:05:40;17.77;;;15.02;;
60502;SDS011;51448;51.660;5.824;2023-07-28T10:08:09;17.58;;;14.60;;
60502;SDS011;51448;51.660;5.824;2023-07-28T10:10:39;17.33;;;15.25;;
60502;SDS011;51448;51.660;5.824;2023-07-28T10:13:15;16.25;;;14.38;;
60502;SDS011;51448;51.660;5.824;2023-07-28T10:15:49;16.13;;;14.45;;
60502;SDS011;51448;51.660;5.824;2023-07-28T10:18:19;16.45;;;13.95;;
60502;SDS011;51448;51.660;5.824;2023-07-28T10:20:49;16.70;;;14.18;;
60502;SDS011;51448;51.660;5.824;2023-07-28T10:23:17;16.10;;;14.00;;
60502;SDS011;51448;51.660;5.824;2023-07-28T10:25:58;15.50;;;13.15;;
60502;SDS011;51448;51.660;5.824;2023-07-28T10:28:29;15.20;;;13.15;;
60502;SDS011;51448;51.660;5.824;2023-07-28T10:31:05;15.38;;;13.45;;
60502;SDS011;51448;51.660;5.824;2023-07-28T10:36:16;14.00;;;12.50;;
60502;SDS011;51448;51.660;5.824;2023-07-28T10:41:35;13.45;;;12.02;;
60502;SDS011;51448;51.660;5.824;2023-07-28T10:44:03;13.95;;;12.52;;
60502;SDS011;51448;51.660;5.824;2023-07-28T10:46:31;13.25;;;11.82;;
60502;SDS011;51448;51.660;5.824;2023-07-28T10:49:06;14.20;;;12.32;;
60502;SDS011;51448;51.660;5.824;2023-07-28T10:51:34;12.50;;;11.20;;
60502;SDS011;51448;51.660;5.824;2023-07-28T10:54:03;14.82;;;11.70;;
60502;SDS011;51448;51.660;5.824;2023-07-28T10:56:31;13.23;;;11.57;;
60502;SDS011;51448;51.660;5.824;2023-07-28T10:59:02;12.02;;;10.73;;
60502;SDS011;51448;51.660;5.824;2023-07-28T11:04:18;12.02;;;10.55;;
60502;SDS011;51448;51.660;5.824;2023-07-28T11:06:48;12.32;;;9.70;;
60502;SDS011;51448;51.660;5.824;2023-07-28T11:09:18;11.75;;;10.30;;
60502;SDS011;51448;51.660;5.824;2023-07-28T11:11:50;12.02;;;10.60;;
60502;SDS011;51448;51.660;5.824;2023-07-28T11:14:19;12.38;;;10.43;;
60502;SDS011;51448;51.660;5.824;2023-07-28T11:16:47;10.57;;;9.48;;
60502;SDS011;51448;51.660;5.824;2023-07-28T11:19:16;10.43;;;9.20;;
60502;SDS011;51448;51.660;5.824;2023-07-28T11:21:45;10.85;;;9.15;;
60502;SDS011;51448;51.660;5.824;2023-07-28T11:24:21;10.90;;;9.45;;
60502;SDS011;51448;51.660;5.824;2023-07-28T11:26:51;12.38;;;10.15;;
60502;SDS011;51448;51.660;5.824;2023-07-28T11:29:19;26.05;;;18.27;;
60502;SDS011;51448;51.660;5.824;2023-07-28T11:31:48;35.20;;;26.23;;
60502;SDS011;51448;51.660;5.824;2023-07-28T11:34:17;19.00;;;13.38;;
60502;SDS011;51448;51.660;5.824;2023-07-28T11:36:45;11.35;;;9.10;;
60502;SDS011;51448;51.660;5.824;2023-07-28T11:39:13;12.85;;;9.02;;
60502;SDS011;51448;51.660;5.824;2023-07-28T11:41:43;10.55;;;9.05;;
60502;SDS011;51448;51.660;5.824;2023-07-28T11:44:15;12.32;;;10.93;;
60502;SDS011;51448;51.660;5.824;2023-07-28T11:46:43;11.82;;;10.48;;
60502;SDS011;51448;51.660;5.824;2023-07-28T11:49:15;10.15;;;9.00;;
60502;SDS011;51448;51.660;5.824;2023-07-28T11:51:50;10.02;;;8.95;;
60502;SDS011;51448;51.660;5.824;2023-07-28T11:54:21;10.70;;;8.75;;
60502;SDS011;51448;51.660;5.824;2023-07-28T11:56:54;10.50;;;7.43;;
60502;SDS011;51448;51.660;5.824;2023-07-28T11:59:24;7.10;;;5.30;;
60502;SDS011;51448;51.660;5.824;2023-07-28T12:01:55;8.18;;;6.60;;
60502;SDS011;51448;51.660;5.824;2023-07-28T12:04:29;8.27;;;6.70;;
60502;SDS011;51448;51.660;5.824;2023-07-28T12:07:09;8.00;;;5.20;;
60502;SDS011;51448;51.660;5.824;2023-07-28T12:12:14;7.35;;;6.00;;
60502;SDS011;51448;51.660;5.824;2023-07-28T12:14:46;8.90;;;6.15;;
60502;SDS011;51448;51.660;5.824;2023-07-28T12:17:34;7.63;;;5.32;;
60502;SDS011;51448;51.660;5.824;2023-07-28T12:20:07;5.75;;;3.42;;
60502;SDS011;51448;51.660;5.824;2023-07-28T12:22:44;4.80;;;3.40;;
60502;SDS011;51448;51.660;5.824;2023-07-28T12:25:12;5.13;;;3.50;;
60502;SDS011;51448;51.660;5.824;2023-07-28T12:27:42;6.03;;;3.05;;
60502;SDS011;51448;51.660;5.824;2023-07-28T12:30:10;4.50;;;3.08;;
60502;SDS011;51448;51.660;5.824;2023-07-28T12:35:28;4.68;;;1.90;;
60502;SDS011;51448;51.660;5.824;2023-07-28T12:38:04;3.92;;;1.80;;
60502;SDS011;51448;51.660;5.824;2023-07-28T12:40:36;3.80;;;2.08;;
60502;SDS011;51448;51.660;5.824;2023-07-28T12:43:06;4.07;;;2.03;;
60502;SDS011;51448;51.660;5.824;2023-07-28T12:45:34;4.13;;;1.70;;
60502;SDS011;51448;51.660;5.824;2023-07-28T12:48:05;3.33;;;2.00;;
60502;SDS011;51448;51.660;5.824;2023-07-28T12:50:33;3.50;;;2.13;;
60502;SDS011;51448;51.660;5.824;2023-07-28T12:53:03;3.03;;;1.80;;
60502;SDS011;51448;51.660;5.824;2023-07-28T12:55:43;5.03;;;2.30;;
60502;SDS011;51448;51.660;5.824;2023-07-28T12:58:13;5.63;;;2.53;;
60502;SDS011;51448;51.660;5.824;2023-07-28T13:00:44;3.70;;;2.07;;
60502;SDS011;51448;51.660;5.824;2023-07-28T13:03:14;4.03;;;2.10;;
60502;SDS011;51448;51.660;5.824;2023-07-28T13:05:42;3.67;;;2.10;;
60502;SDS011;51448;51.660;5.824;2023-07-28T13:08:10;3.88;;;1.80;;
60502;SDS011;51448;51.660;5.824;2023-07-28T13:10:38;4.35;;;1.95;;
60502;SDS011;51448;51.660;5.824;2023-07-28T13:13:09;3.17;;;1.77;;
60502;SDS011;51448;51.660;5.824;2023-07-28T13:15:40;2.72;;;1.55;;
60502;SDS011;51448;51.660;5.824;2023-07-28T13:18:08;3.92;;;1.70;;
60502;SDS011;51448;51.660;5.824;2023-07-28T13:20:36;2.67;;;1.33;;
60502;SDS011;51448;51.660;5.824;2023-07-28T13:23:04;3.42;;;1.55;;
60502;SDS011;51448;51.660;5.824;2023-07-28T13:25:31;3.35;;;1.52;;
60502;SDS011;51448;51.660;5.824;2023-07-28T13:27:59;4.20;;;1.50;;
60502;SDS011;51448;51.660;5.824;2023-07-28T13:30:27;5.55;;;1.90;;
60502;SDS011;51448;51.660;5.824;2023-07-28T13:32:56;4.75;;;1.77;;
60502;SDS011;51448;51.660;5.824;2023-07-28T13:35:24;5.25;;;1.70;;
60502;SDS011;51448;51.660;5.824;2023-07-28T13:37:52;2.53;;;1.20;;
60502;SDS011;51448;51.660;5.824;2023-07-28T13:40:20;3.30;;;1.02;;
60502;SDS011;51448;51.660;5.824;2023-07-28T13:42:47;3.47;;;1.30;;
60502;SDS011;51448;51.660;5.824;2023-07-28T13:45:15;5.13;;;1.10;;
60502;SDS011;51448;51.660;5.824;2023-07-28T13:47:42;3.47;;;1.30;;
60502;SDS011;51448;51.660;5.824;2023-07-28T13:50:10;3.97;;;1.27;;
60502;SDS011;51448;51.660;5.824;2023-07-28T13:52:38;2.97;;;1.50;;
60502;SDS011;51448;51.660;5.824;2023-07-28T13:55:05;2.75;;;1.30;;
60502;SDS011;51448;51.660;5.824;2023-07-28T14:00:04;2.33;;;1.20;;
60502;SDS011;51448;51.660;5.824;2023-07-28T14:02:36;2.05;;;1.20;;
60502;SDS011;51448;51.660;5.824;2023-07-28T14:05:05;2.20;;;1.00;;
60502;SDS011;51448;51.660;5.824;2023-07-28T14:07:34;3.20;;;1.20;;
60502;SDS011;51448;51.660;5.824;2023-07-28T14:10:02;2.47;;;1.00;;
60502;SDS011;51448;51.660;5.824;2023-07-28T14:12:33;2.70;;;1.20;;
60502;SDS011;51448;51.660;5.824;2023-07-28T14:15:01;4.40;;;1.40;;
60502;SDS011;51448;51.660;5.824;2023-07-28T14:17:31;2.63;;;1.23;;
60502;SDS011;51448;51.660;5.824;2023-07-28T14:19:58;3.20;;;1.15;;
60502;SDS011;51448;51.660;5.824;2023-07-28T14:22:26;2.70;;;1.00;;
60502;SDS011;51448;51.660;5.824;2023-07-28T14:24:53;4.32;;;1.20;;
60502;SDS011;51448;51.660;5.824;2023-07-28T14:27:21;2.67;;;1.38;;
60502;SDS011;51448;51.660;5.824;2023-07-28T14:29:48;4.95;;;1.50;;
60502;SDS011;51448;51.660;5.824;2023-07-28T14:32:16;4.15;;;1.58;;
60502;SDS011;51448;51.660;5.824;2023-07-28T14:34:44;2.47;;;0.95;;
60502;SDS011;51448;51.660;5.824;2023-07-28T14:37:11;2.72;;;1.33;;
60502;SDS011;51448;51.660;5.824;2023-07-28T14:39:39;2.58;;;1.20;;
60502;SDS011;51448;51.660;5.824;2023-07-28T14:42:06;2.53;;;1.20;;
60502;SDS011;51448;51.660;5.824;2023-07-28T14:44:34;2.20;;;0.88;;
60502;SDS011;51448;51.660;5.824;2023-07-28T14:47:02;3.00;;;1.05;;
60502;SDS011;51448;51.660;5.824;2023-07-28T14:49:30;3.13;;;1.08;;
60502;SDS011;51448;51.660;5.824;2023-07-28T14:51:58;3.05;;;1.00;;
60502;SDS011;51448;51.660;5.824;2023-07-28T14:54:25;2.28;;;1.13;;
60502;SDS011;51448;51.660;5.824;2023-07-28T14:56:54;3.05;;;1.30;;
60502;SDS011;51448;51.660;5.824;2023-07-28T14:59:22;2.13;;;1.00;;
60502;SDS011;51448;51.660;5.824;2023-07-28T15:01:49;2.35;;;0.90;;
60502;SDS011;51448;51.660;5.824;2023-07-28T15:04:17;2.53;;;1.00;;
60502;SDS011;51448;51.660;5.824;2023-07-28T15:06:44;2.72;;;0.82;;
60502;SDS011;51448;51.660;5.824;2023-07-28T15:09:12;2.17;;;1.00;;
60502;SDS011;51448;51.660;5.824;2023-07-28T15:11:40;1.95;;;0.90;;